sensor_id;sensor_type;location;lat;lon;timestamp;pressure;altitude;pressure_sealevel;temperature
22322;BMP180;11328;53.928;18.522;2023-07-20T00:01:01;99701.00;;;15.70
22322;BMP180;11328;53.928;18.522;2023-07-20T00:03:28;99696.00;;;15.70
22322;BMP180;11328;53.928;18.522;2023-07-20T00:05:55;99679.00;;;15.70
22322;BMP180;11328;53.928;18.522;2023-07-20T00:08:22;99699.00;;;15.60
22322;BMP180;11328;53.928;18.522;2023-07-20T00:10:50;99687.00;;;15.60
22322;BMP180;11328;53.928;18.522;2023-07-20T00:13:17;99703.00;;;15.40
22322;BMP180;11328;53.928;18.522;2023-07-20T00:15:46;99697.00;;;15.20
22322;BMP180;11328;53.928;18.522;2023-07-20T00:18:14;99701.00;;;15.10
22322;BMP180;11328;53.928;18.522;2023-07-20T00:20:41;99692.00;;;15.00
22322;BMP180;11328;53.928;18.522;2023-07-20T00:23:09;99698.00;;;14.90
22322;BMP180;11328;53.928;18.522;2023-07-20T00:25:36;99683.00;;;14.90
22322;BMP180;11328;53.928;18.522;2023-07-20T00:28:03;99690.00;;;14.80
22322;BMP180;11328;53.928;18.522;2023-07-20T00:30:30;99697.00;;;14.80
22322;BMP180;11328;53.928;18.522;2023-07-20T00:32:58;99707.00;;;14.80
22322;BMP180;11328;53.928;18.522;2023-07-20T00:35:25;99699.00;;;14.70
22322;BMP180;11328;53.928;18.522;2023-07-20T00:37:52;99698.00;;;14.70
22322;BMP180;11328;53.928;18.522;2023-07-20T00:40:20;99696.00;;;14.70
22322;BMP180;11328;53.928;18.522;2023-07-20T00:42:47;99697.00;;;14.60
22322;BMP180;11328;53.928;18.522;2023-07-20T00:45:16;99696.00;;;14.60
22322;BMP180;11328;53.928;18.522;2023-07-20T00:47:43;99692.00;;;14.60
22322;BMP180;11328;53.928;18.522;2023-07-20T00:50:10;99689.00;;;14.50
22322;BMP180;11328;53.928;18.522;2023-07-20T00:52:39;99689.00;;;14.50
22322;BMP180;11328;53.928;18.522;2023-07-20T00:55:09;99689.00;;;14.50
22322;BMP180;11328;53.928;18.522;2023-07-20T00:57:36;99689.00;;;14.50
22322;BMP180;11328;53.928;18.522;2023-07-20T01:00:04;99614.00;;;14.50
22322;BMP180;11328;53.928;18.522;2023-07-20T01:02:33;99685.00;;;14.50
22322;BMP180;11328;53.928;18.522;2023-07-20T01:05:01;99693.00;;;14.50
22322;BMP180;11328;53.928;18.522;2023-07-20T01:07:43;99679.00;;;14.50
22322;BMP180;11328;53.928;18.522;2023-07-20T01:10:34;99678.00;;;14.40
22322;BMP180;11328;53.928;18.522;2023-07-20T01:13:06;99682.00;;;14.50
22322;BMP180;11328;53.928;18.522;2023-07-20T01:15:34;99681.00;;;14.50
22322;BMP180;11328;53.928;18.522;2023-07-20T01:18:02;99680.00;;;14.50
22322;BMP180;11328;53.928;18.522;2023-07-20T01:20:33;99685.00;;;14.40
22322;BMP180;11328;53.928;18.522;2023-07-20T01:29:11;99678.00;;;14.50
22322;BMP180;11328;53.928;18.522;2023-07-20T01:31:45;99698.00;;;14.60
22322;BMP180;11328;53.928;18.522;2023-07-20T01:34:17;99685.00;;;14.70
22322;BMP180;11328;53.928;18.522;2023-07-20T01:36:48;99679.00;;;14.70
22322;BMP180;11328;53.928;18.522;2023-07-20T01:39:17;99679.00;;;14.70
22322;BMP180;11328;53.928;18.522;2023-07-20T01:41:45;99677.00;;;14.60
22322;BMP180;11328;53.928;18.522;2023-07-20T01:44:13;99680.00;;;14.60
22322;BMP180;11328;53.928;18.522;2023-07-20T01:46:40;99671.00;;;14.60
22322;BMP180;11328;53.928;18.522;2023-07-20T01:49:07;99682.00;;;14.70
22322;BMP180;11328;53.928;18.522;2023-07-20T01:51:34;99683.00;;;14.70
22322;BMP180;11328;53.928;18.522;2023-07-20T01:54:02;99689.00;;;14.70
22322;BMP180;11328;53.928;18.522;2023-07-20T01:56:29;99695.00;;;14.60
22322;BMP180;11328;53.928;18.522;2023-07-20T01:58:56;99684.00;;;14.70
22322;BMP180;11328;53.928;18.522;2023-07-20T02:01:24;99679.00;;;14.80
22322;BMP180;11328;53.928;18.522;2023-07-20T02:03:51;99677.00;;;14.80
22322;BMP180;11328;53.928;18.522;2023-07-20T02:06:18;99690.00;;;14.80
22322;BMP180;11328;53.928;18.522;2023-07-20T02:08:45;99669.00;;;14.80
22322;BMP180;11328;53.928;18.522;2023-07-20T02:11:12;99685.00;;;14.70
22322;BMP180;11328;53.928;18.522;2023-07-20T02:13:39;99684.00;;;14.70
22322;BMP180;11328;53.928;18.522;2023-07-20T02:16:06;99620.00;;;14.70
22322;BMP180;11328;53.928;18.522;2023-07-20T02:18:34;99673.00;;;14.50
22322;BMP180;11328;53.928;18.522;2023-07-20T02:21:02;99684.00;;;14.50
22322;BMP180;11328;53.928;18.522;2023-07-20T02:23:30;99687.00;;;14.50
22322;BMP180;11328;53.928;18.522;2023-07-20T02:25:57;99681.00;;;14.70
22322;BMP180;11328;53.928;18.522;2023-07-20T02:28:24;99671.00;;;14.70
22322;BMP180;11328;53.928;18.522;2023-07-20T02:30:51;99682.00;;;14.50
22322;BMP180;11328;53.928;18.522;2023-07-20T02:33:18;99677.00;;;14.50
22322;BMP180;11328;53.928;18.522;2023-07-20T02:35:45;99675.00;;;14.50
22322;BMP180;11328;53.928;18.522;2023-07-20T02:38:12;99685.00;;;14.60
22322;BMP180;11328;53.928;18.522;2023-07-20T02:40:39;99680.00;;;14.70
22322;BMP180;11328;53.928;18.522;2023-07-20T02:43:06;99680.00;;;14.70
22322;BMP180;11328;53.928;18.522;2023-07-20T02:45:34;99684.00;;;14.70
22322;BMP180;11328;53.928;18.522;2023-07-20T02:48:01;99683.00;;;14.80
22322;BMP180;11328;53.928;18.522;2023-07-20T02:50:29;99679.00;;;14.80
22322;BMP180;11328;53.928;18.522;2023-07-20T02:52:57;99680.00;;;14.80
22322;BMP180;11328;53.928;18.522;2023-07-20T02:55:24;99679.00;;;14.80
22322;BMP180;11328;53.928;18.522;2023-07-20T02:57:51;99667.00;;;14.80
22322;BMP180;11328;53.928;18.522;2023-07-20T03:00:18;99673.00;;;14.80
22322;BMP180;11328;53.928;18.522;2023-07-20T03:02:46;99675.00;;;14.80
22322;BMP180;11328;53.928;18.522;2023-07-20T03:05:23;99666.00;;;14.80
22322;BMP180;11328;53.928;18.522;2023-07-20T03:07:55;99674.00;;;14.80
22322;BMP180;11328;53.928;18.522;2023-07-20T03:10:23;99672.00;;;14.90
22322;BMP180;11328;53.928;18.522;2023-07-20T03:12:50;99667.00;;;14.90
22322;BMP180;11328;53.928;18.522;2023-07-20T03:15:17;99675.00;;;14.90
22322;BMP180;11328;53.928;18.522;2023-07-20T03:17:44;99669.00;;;15.10
22322;BMP180;11328;53.928;18.522;2023-07-20T03:20:12;99673.00;;;15.20
22322;BMP180;11328;53.928;18.522;2023-07-20T03:22:39;99677.00;;;15.20
22322;BMP180;11328;53.928;18.522;2023-07-20T03:25:07;99686.00;;;15.20
22322;BMP180;11328;53.928;18.522;2023-07-20T03:27:34;99676.00;;;15.20
22322;BMP180;11328;53.928;18.522;2023-07-20T03:30:02;99677.00;;;15.30
22322;BMP180;11328;53.928;18.522;2023-07-20T03:32:29;99678.00;;;15.40
22322;BMP180;11328;53.928;18.522;2023-07-20T03:34:57;99679.00;;;15.50
22322;BMP180;11328;53.928;18.522;2023-07-20T03:37:24;99680.00;;;15.80
22322;BMP180;11328;53.928;18.522;2023-07-20T03:39:51;99655.00;;;15.90
22322;BMP180;11328;53.928;18.522;2023-07-20T03:42:18;99681.00;;;15.90
22322;BMP180;11328;53.928;18.522;2023-07-20T03:44:45;99683.00;;;15.80
22322;BMP180;11328;53.928;18.522;2023-07-20T03:47:13;99683.00;;;16.00
22322;BMP180;11328;53.928;18.522;2023-07-20T03:49:40;99688.00;;;16.00
22322;BMP180;11328;53.928;18.522;2023-07-20T03:52:09;99683.00;;;16.00
22322;BMP180;11328;53.928;18.522;2023-07-20T03:54:36;99681.00;;;16.20
22322;BMP180;11328;53.928;18.522;2023-07-20T03:57:04;99656.00;;;16.20
22322;BMP180;11328;53.928;18.522;2023-07-20T03:59:31;99685.00;;;16.20
22322;BMP180;11328;53.928;18.522;2023-07-20T04:02:00;99663.00;;;16.20
22322;BMP180;11328;53.928;18.522;2023-07-20T04:04:28;99687.00;;;16.20
22322;BMP180;11328;53.928;18.522;2023-07-20T04:06:55;99689.00;;;16.30
22322;BMP180;11328;53.928;18.522;2023-07-20T04:09:22;99682.00;;;16.40
22322;BMP180;11328;53.928;18.522;2023-07-20T04:11:49;99688.00;;;16.40
22322;BMP180;11328;53.928;18.522;2023-07-20T04:14:16;99694.00;;;16.40
22322;BMP180;11328;53.928;18.522;2023-07-20T04:16:47;99692.00;;;16.40
22322;BMP180;11328;53.928;18.522;2023-07-20T04:19:14;99689.00;;;16.40
22322;BMP180;11328;53.928;18.522;2023-07-20T04:21:41;99691.00;;;16.50
22322;BMP180;11328;53.928;18.522;2023-07-20T04:24:09;99701.00;;;16.40
22322;BMP180;11328;53.928;18.522;2023-07-20T04:26:37;99690.00;;;16.40
22322;BMP180;11328;53.928;18.522;2023-07-20T04:29:04;99686.00;;;16.50
22322;BMP180;11328;53.928;18.522;2023-07-20T04:31:31;99689.00;;;16.50
22322;BMP180;11328;53.928;18.522;2023-07-20T04:34:00;99705.00;;;16.60
22322;BMP180;11328;53.928;18.522;2023-07-20T04:36:28;99691.00;;;16.50
22322;BMP180;11328;53.928;18.522;2023-07-20T04:38:55;99688.00;;;16.50
22322;BMP180;11328;53.928;18.522;2023-07-20T04:41:22;99690.00;;;16.40
22322;BMP180;11328;53.928;18.522;2023-07-20T04:43:49;99694.00;;;16.40
22322;BMP180;11328;53.928;18.522;2023-07-20T04:46:17;99700.00;;;16.60
22322;BMP180;11328;53.928;18.522;2023-07-20T04:48:46;99699.00;;;16.50
22322;BMP180;11328;53.928;18.522;2023-07-20T04:51:13;99700.00;;;16.60
22322;BMP180;11328;53.928;18.522;2023-07-20T04:53:40;99695.00;;;16.60
22322;BMP180;11328;53.928;18.522;2023-07-20T04:56:08;99698.00;;;16.70
22322;BMP180;11328;53.928;18.522;2023-07-20T04:58:35;99702.00;;;16.70
22322;BMP180;11328;53.928;18.522;2023-07-20T05:01:02;99706.00;;;16.50
22322;BMP180;11328;53.928;18.522;2023-07-20T05:03:29;99700.00;;;16.60
22322;BMP180;11328;53.928;18.522;2023-07-20T05:05:57;99701.00;;;16.70
22322;BMP180;11328;53.928;18.522;2023-07-20T05:08:24;99687.00;;;16.80
22322;BMP180;11328;53.928;18.522;2023-07-20T05:10:52;99674.00;;;17.00
22322;BMP180;11328;53.928;18.522;2023-07-20T05:13:19;99684.00;;;17.10
22322;BMP180;11328;53.928;18.522;2023-07-20T05:15:46;99665.00;;;17.10
22322;BMP180;11328;53.928;18.522;2023-07-20T05:18:13;99683.00;;;17.20
22322;BMP180;11328;53.928;18.522;2023-07-20T05:20:50;99687.00;;;17.20
22322;BMP180;11328;53.928;18.522;2023-07-20T05:23:18;99683.00;;;17.20
22322;BMP180;11328;53.928;18.522;2023-07-20T05:25:59;99695.00;;;17.40
22322;BMP180;11328;53.928;18.522;2023-07-20T05:28:26;99698.00;;;17.60
22322;BMP180;11328;53.928;18.522;2023-07-20T05:30:54;99698.00;;;17.60
22322;BMP180;11328;53.928;18.522;2023-07-20T05:33:22;99702.00;;;17.70
22322;BMP180;11328;53.928;18.522;2023-07-20T05:35:49;99698.00;;;17.80
22322;BMP180;11328;53.928;18.522;2023-07-20T05:38:17;99709.00;;;17.90
22322;BMP180;11328;53.928;18.522;2023-07-20T05:40:45;99707.00;;;18.00
22322;BMP180;11328;53.928;18.522;2023-07-20T05:43:12;99713.00;;;18.20
22322;BMP180;11328;53.928;18.522;2023-07-20T05:45:44;99701.00;;;18.20
22322;BMP180;11328;53.928;18.522;2023-07-20T05:48:12;99709.00;;;18.10
22322;BMP180;11328;53.928;18.522;2023-07-20T05:50:43;99705.00;;;18.30
22322;BMP180;11328;53.928;18.522;2023-07-20T05:53:11;99709.00;;;18.50
22322;BMP180;11328;53.928;18.522;2023-07-20T05:55:38;99705.00;;;18.70
22322;BMP180;11328;53.928;18.522;2023-07-20T05:58:06;99702.00;;;18.70
22322;BMP180;11328;53.928;18.522;2023-07-20T06:00:34;99711.00;;;18.60
22322;BMP180;11328;53.928;18.522;2023-07-20T06:03:01;99698.00;;;18.40
22322;BMP180;11328;53.928;18.522;2023-07-20T06:05:30;99687.00;;;18.40
22322;BMP180;11328;53.928;18.522;2023-07-20T06:07:57;99697.00;;;18.40
22322;BMP180;11328;53.928;18.522;2023-07-20T06:10:25;99700.00;;;18.50
22322;BMP180;11328;53.928;18.522;2023-07-20T06:12:53;99701.00;;;18.40
22322;BMP180;11328;53.928;18.522;2023-07-20T06:15:33;99701.00;;;18.50
22322;BMP180;11328;53.928;18.522;2023-07-20T06:18:03;99694.00;;;18.50
22322;BMP180;11328;53.928;18.522;2023-07-20T06:20:31;99708.00;;;18.70
22322;BMP180;11328;53.928;18.522;2023-07-20T06:22:58;99712.00;;;18.60
22322;BMP180;11328;53.928;18.522;2023-07-20T06:25:25;99714.00;;;18.50
22322;BMP180;11328;53.928;18.522;2023-07-20T06:27:55;99719.00;;;18.70
22322;BMP180;11328;53.928;18.522;2023-07-20T06:30:24;99701.00;;;18.80
22322;BMP180;11328;53.928;18.522;2023-07-20T06:32:52;99716.00;;;18.80
22322;BMP180;11328;53.928;18.522;2023-07-20T06:35:19;99713.00;;;18.80
22322;BMP180;11328;53.928;18.522;2023-07-20T06:37:46;99722.00;;;18.90
22322;BMP180;11328;53.928;18.522;2023-07-20T06:40:13;99698.00;;;18.90
22322;BMP180;11328;53.928;18.522;2023-07-20T06:42:43;99718.00;;;19.00
22322;BMP180;11328;53.928;18.522;2023-07-20T06:45:14;99712.00;;;19.10
22322;BMP180;11328;53.928;18.522;2023-07-20T06:47:41;99707.00;;;19.30
22322;BMP180;11328;53.928;18.522;2023-07-20T06:50:09;99717.00;;;19.50
22322;BMP180;11328;53.928;18.522;2023-07-20T06:52:43;99717.00;;;19.50
22322;BMP180;11328;53.928;18.522;2023-07-20T06:55:10;99715.00;;;19.50
22322;BMP180;11328;53.928;18.522;2023-07-20T06:57:37;99718.00;;;19.80
22322;BMP180;11328;53.928;18.522;2023-07-20T07:00:06;99716.00;;;19.90
22322;BMP180;11328;53.928;18.522;2023-07-20T07:02:33;99721.00;;;19.90
22322;BMP180;11328;53.928;18.522;2023-07-20T07:05:02;99721.00;;;20.00
22322;BMP180;11328;53.928;18.522;2023-07-20T07:07:46;99719.00;;;19.90
22322;BMP180;11328;53.928;18.522;2023-07-20T07:10:14;99727.00;;;20.10
22322;BMP180;11328;53.928;18.522;2023-07-20T07:12:41;99721.00;;;20.30
22322;BMP180;11328;53.928;18.522;2023-07-20T07:15:09;99720.00;;;20.20
22322;BMP180;11328;53.928;18.522;2023-07-20T07:17:37;99716.00;;;20.40
22322;BMP180;11328;53.928;18.522;2023-07-20T07:20:06;99722.00;;;21.00
22322;BMP180;11328;53.928;18.522;2023-07-20T07:22:37;99726.00;;;21.10
22322;BMP180;11328;53.928;18.522;2023-07-20T07:25:05;99750.00;;;20.90
22322;BMP180;11328;53.928;18.522;2023-07-20T07:27:32;99710.00;;;21.10
22322;BMP180;11328;53.928;18.522;2023-07-20T07:30:00;99731.00;;;22.00
22322;BMP180;11328;53.928;18.522;2023-07-20T07:32:27;99734.00;;;22.30
22322;BMP180;11328;53.928;18.522;2023-07-20T07:34:54;99730.00;;;22.10
22322;BMP180;11328;53.928;18.522;2023-07-20T07:37:22;99740.00;;;21.70
22322;BMP180;11328;53.928;18.522;2023-07-20T07:39:50;99721.00;;;21.60
22322;BMP180;11328;53.928;18.522;2023-07-20T07:42:17;99710.00;;;21.40
22322;BMP180;11328;53.928;18.522;2023-07-20T07:44:45;99719.00;;;21.70
22322;BMP180;11328;53.928;18.522;2023-07-20T07:47:15;99732.00;;;21.90
22322;BMP180;11328;53.928;18.522;2023-07-20T07:49:43;99724.00;;;22.10
22322;BMP180;11328;53.928;18.522;2023-07-20T07:52:13;99717.00;;;22.50
22322;BMP180;11328;53.928;18.522;2023-07-20T07:54:41;99719.00;;;22.50
22322;BMP180;11328;53.928;18.522;2023-07-20T07:57:08;99718.00;;;22.30
22322;BMP180;11328;53.928;18.522;2023-07-20T07:59:35;99732.00;;;22.30
22322;BMP180;11328;53.928;18.522;2023-07-20T08:02:05;99711.00;;;22.20
22322;BMP180;11328;53.928;18.522;2023-07-20T08:04:32;99729.00;;;22.20
22322;BMP180;11328;53.928;18.522;2023-07-20T08:07:03;99725.00;;;21.90
22322;BMP180;11328;53.928;18.522;2023-07-20T08:09:30;99739.00;;;21.80
22322;BMP180;11328;53.928;18.522;2023-07-20T08:11:57;99731.00;;;21.40
22322;BMP180;11328;53.928;18.522;2023-07-20T08:14:24;99735.00;;;21.40
22322;BMP180;11328;53.928;18.522;2023-07-20T08:16:52;99734.00;;;21.50
22322;BMP180;11328;53.928;18.522;2023-07-20T08:19:20;99732.00;;;21.60
22322;BMP180;11328;53.928;18.522;2023-07-20T08:21:48;99742.00;;;21.70
22322;BMP180;11328;53.928;18.522;2023-07-20T08:24:15;99740.00;;;21.50
22322;BMP180;11328;53.928;18.522;2023-07-20T08:26:42;99734.00;;;21.40
22322;BMP180;11328;53.928;18.522;2023-07-20T08:29:09;99733.00;;;21.50
22322;BMP180;11328;53.928;18.522;2023-07-20T08:31:36;99742.00;;;21.50
22322;BMP180;11328;53.928;18.522;2023-07-20T08:34:03;99746.00;;;21.70
22322;BMP180;11328;53.928;18.522;2023-07-20T08:36:50;99748.00;;;22.10
22322;BMP180;11328;53.928;18.522;2023-07-20T08:39:17;99744.00;;;21.90
22322;BMP180;11328;53.928;18.522;2023-07-20T08:41:46;99752.00;;;21.90
22322;BMP180;11328;53.928;18.522;2023-07-20T08:44:14;99744.00;;;22.00
22322;BMP180;11328;53.928;18.522;2023-07-20T08:46:43;99749.00;;;22.10
22322;BMP180;11328;53.928;18.522;2023-07-20T08:49:12;99748.00;;;22.20
22322;BMP180;11328;53.928;18.522;2023-07-20T08:51:41;99749.00;;;22.30
22322;BMP180;11328;53.928;18.522;2023-07-20T08:54:11;99751.00;;;22.20
22322;BMP180;11328;53.928;18.522;2023-07-20T08:56:40;99749.00;;;22.10
22322;BMP180;11328;53.928;18.522;2023-07-20T08:59:14;99749.00;;;22.20
22322;BMP180;11328;53.928;18.522;2023-07-20T09:01:44;99742.00;;;22.20
22322;BMP180;11328;53.928;18.522;2023-07-20T09:04:13;99746.00;;;22.30
22322;BMP180;11328;53.928;18.522;2023-07-20T09:06:40;99739.00;;;22.30
22322;BMP180;11328;53.928;18.522;2023-07-20T09:09:12;99735.00;;;22.10
22322;BMP180;11328;53.928;18.522;2023-07-20T09:11:40;99703.00;;;22.00
22322;BMP180;11328;53.928;18.522;2023-07-20T09:14:09;99732.00;;;21.70
22322;BMP180;11328;53.928;18.522;2023-07-20T09:17:12;99733.00;;;21.80
22322;BMP180;11328;53.928;18.522;2023-07-20T09:19:47;99733.00;;;21.80
22322;BMP180;11328;53.928;18.522;2023-07-20T09:22:14;99732.00;;;22.10
22322;BMP180;11328;53.928;18.522;2023-07-20T09:24:41;99736.00;;;22.50
22322;BMP180;11328;53.928;18.522;2023-07-20T09:27:10;99736.00;;;22.30
22322;BMP180;11328;53.928;18.522;2023-07-20T09:29:51;99731.00;;;22.60
22322;BMP180;11328;53.928;18.522;2023-07-20T09:32:20;99730.00;;;22.40
22322;BMP180;11328;53.928;18.522;2023-07-20T09:34:52;99741.00;;;22.10
22322;BMP180;11328;53.928;18.522;2023-07-20T09:37:23;99739.00;;;21.80
22322;BMP180;11328;53.928;18.522;2023-07-20T09:39:52;99751.00;;;21.50
22322;BMP180;11328;53.928;18.522;2023-07-20T09:42:23;99743.00;;;21.30
22322;BMP180;11328;53.928;18.522;2023-07-20T09:44:56;99748.00;;;21.10
22322;BMP180;11328;53.928;18.522;2023-07-20T09:47:24;99740.00;;;20.80
22322;BMP180;11328;53.928;18.522;2023-07-20T09:49:59;99747.00;;;20.80
22322;BMP180;11328;53.928;18.522;2023-07-20T09:52:31;99751.00;;;21.00
22322;BMP180;11328;53.928;18.522;2023-07-20T09:55:03;99741.00;;;21.00
22322;BMP180;11328;53.928;18.522;2023-07-20T09:57:35;99743.00;;;20.70
22322;BMP180;11328;53.928;18.522;2023-07-20T10:00:07;99747.00;;;20.80
22322;BMP180;11328;53.928;18.522;2023-07-20T10:02:46;99740.00;;;21.10
22322;BMP180;11328;53.928;18.522;2023-07-20T10:05:14;99749.00;;;21.10
22322;BMP180;11328;53.928;18.522;2023-07-20T10:07:47;99741.00;;;21.00
22322;BMP180;11328;53.928;18.522;2023-07-20T10:10:18;99754.00;;;20.90
22322;BMP180;11328;53.928;18.522;2023-07-20T10:12:48;99745.00;;;20.80
22322;BMP180;11328;53.928;18.522;2023-07-20T10:15:29;99743.00;;;20.80
22322;BMP180;11328;53.928;18.522;2023-07-20T10:18:18;99745.00;;;20.70
22322;BMP180;11328;53.928;18.522;2023-07-20T10:20:51;99742.00;;;20.50
22322;BMP180;11328;53.928;18.522;2023-07-20T10:23:23;99725.00;;;20.70
22322;BMP180;11328;53.928;18.522;2023-07-20T10:25:50;99736.00;;;21.20
22322;BMP180;11328;53.928;18.522;2023-07-20T10:28:18;99722.00;;;21.60
22322;BMP180;11328;53.928;18.522;2023-07-20T10:30:46;99726.00;;;21.90
22322;BMP180;11328;53.928;18.522;2023-07-20T10:33:14;99726.00;;;22.00
22322;BMP180;11328;53.928;18.522;2023-07-20T10:36:01;99724.00;;;22.10
22322;BMP180;11328;53.928;18.522;2023-07-20T10:41:37;99721.00;;;22.70
22322;BMP180;11328;53.928;18.522;2023-07-20T10:44:09;99713.00;;;22.70
22322;BMP180;11328;53.928;18.522;2023-07-20T10:49:09;99715.00;;;23.30
22322;BMP180;11328;53.928;18.522;2023-07-20T10:56:47;99706.00;;;23.20
22322;BMP180;11328;53.928;18.522;2023-07-20T10:59:39;99697.00;;;23.70
22322;BMP180;11328;53.928;18.522;2023-07-20T11:02:09;99723.00;;;24.10
22322;BMP180;11328;53.928;18.522;2023-07-20T11:04:45;99728.00;;;24.20
22322;BMP180;11328;53.928;18.522;2023-07-20T11:07:18;99728.00;;;23.80
22322;BMP180;11328;53.928;18.522;2023-07-20T11:10:23;99742.00;;;23.30
22322;BMP180;11328;53.928;18.522;2023-07-20T11:13:23;99745.00;;;22.60
22322;BMP180;11328;53.928;18.522;2023-07-20T11:18:27;99754.00;;;21.60
22322;BMP180;11328;53.928;18.522;2023-07-20T11:20:55;99768.00;;;21.10
22322;BMP180;11328;53.928;18.522;2023-07-20T11:23:22;99763.00;;;20.90
22322;BMP180;11328;53.928;18.522;2023-07-20T11:25:50;99766.00;;;20.40
22322;BMP180;11328;53.928;18.522;2023-07-20T11:28:17;99748.00;;;20.20
22322;BMP180;11328;53.928;18.522;2023-07-20T11:30:44;99762.00;;;19.90
22322;BMP180;11328;53.928;18.522;2023-07-20T11:33:11;99759.00;;;19.60
22322;BMP180;11328;53.928;18.522;2023-07-20T11:35:46;99757.00;;;19.50
22322;BMP180;11328;53.928;18.522;2023-07-20T11:38:14;99756.00;;;19.50
22322;BMP180;11328;53.928;18.522;2023-07-20T11:40:45;99766.00;;;19.50
22322;BMP180;11328;53.928;18.522;2023-07-20T11:43:14;99762.00;;;19.30
22322;BMP180;11328;53.928;18.522;2023-07-20T11:45:45;99764.00;;;19.30
22322;BMP180;11328;53.928;18.522;2023-07-20T11:48:16;99754.00;;;19.30
22322;BMP180;11328;53.928;18.522;2023-07-20T11:50:44;99752.00;;;19.80
22322;BMP180;11328;53.928;18.522;2023-07-20T11:53:11;99755.00;;;20.10
22322;BMP180;11328;53.928;18.522;2023-07-20T11:55:41;99756.00;;;20.00
22322;BMP180;11328;53.928;18.522;2023-07-20T11:58:09;99750.00;;;20.10
22322;BMP180;11328;53.928;18.522;2023-07-20T12:00:38;99764.00;;;20.20
22322;BMP180;11328;53.928;18.522;2023-07-20T12:03:10;99759.00;;;20.30
22322;BMP180;11328;53.928;18.522;2023-07-20T12:05:39;99759.00;;;20.20
22322;BMP180;11328;53.928;18.522;2023-07-20T12:08:26;99741.00;;;20.40
22322;BMP180;11328;53.928;18.522;2023-07-20T12:10:53;99746.00;;;20.90
22322;BMP180;11328;53.928;18.522;2023-07-20T12:13:20;99737.00;;;21.30
22322;BMP180;11328;53.928;18.522;2023-07-20T12:15:47;99748.00;;;21.40
22322;BMP180;11328;53.928;18.522;2023-07-20T12:18:14;99744.00;;;21.40
22322;BMP180;11328;53.928;18.522;2023-07-20T12:20:41;99757.00;;;21.20
22322;BMP180;11328;53.928;18.522;2023-07-20T12:23:11;99772.00;;;21.20
22322;BMP180;11328;53.928;18.522;2023-07-20T12:25:43;99774.00;;;21.40
22322;BMP180;11328;53.928;18.522;2023-07-20T12:28:17;99775.00;;;21.30
22322;BMP180;11328;53.928;18.522;2023-07-20T12:30:46;99788.00;;;20.70
22322;BMP180;11328;53.928;18.522;2023-07-20T12:33:16;99788.00;;;20.30
22322;BMP180;11328;53.928;18.522;2023-07-20T12:35:45;99790.00;;;20.00
22322;BMP180;11328;53.928;18.522;2023-07-20T12:38:12;99792.00;;;19.80
22322;BMP180;11328;53.928;18.522;2023-07-20T12:40:40;99774.00;;;19.70
22322;BMP180;11328;53.928;18.522;2023-07-20T12:43:07;99770.00;;;19.60
22322;BMP180;11328;53.928;18.522;2023-07-20T12:45:35;99766.00;;;19.80
22322;BMP180;11328;53.928;18.522;2023-07-20T12:48:03;99768.00;;;20.10
22322;BMP180;11328;53.928;18.522;2023-07-20T12:50:30;99763.00;;;20.30
22322;BMP180;11328;53.928;18.522;2023-07-20T12:52:57;99758.00;;;20.50
22322;BMP180;11328;53.928;18.522;2023-07-20T12:55:24;99746.00;;;20.60
22322;BMP180;11328;53.928;18.522;2023-07-20T12:57:52;99762.00;;;20.60
22322;BMP180;11328;53.928;18.522;2023-07-20T13:00:19;99776.00;;;20.60
22322;BMP180;11328;53.928;18.522;2023-07-20T13:02:46;99775.00;;;20.80
22322;BMP180;11328;53.928;18.522;2023-07-20T13:05:15;99764.00;;;21.00
22322;BMP180;11328;53.928;18.522;2023-07-20T13:07:43;99767.00;;;21.20
22322;BMP180;11328;53.928;18.522;2023-07-20T13:10:13;99771.00;;;21.30
22322;BMP180;11328;53.928;18.522;2023-07-20T13:12:40;99755.00;;;21.60
22322;BMP180;11328;53.928;18.522;2023-07-20T13:15:09;99762.00;;;21.40
22322;BMP180;11328;53.928;18.522;2023-07-20T13:17:39;99745.00;;;21.30
22322;BMP180;11328;53.928;18.522;2023-07-20T13:20:09;99739.00;;;21.50
22322;BMP180;11328;53.928;18.522;2023-07-20T13:22:40;99737.00;;;21.50
22322;BMP180;11328;53.928;18.522;2023-07-20T13:25:09;99734.00;;;21.50
22322;BMP180;11328;53.928;18.522;2023-07-20T13:27:36;99741.00;;;21.60
22322;BMP180;11328;53.928;18.522;2023-07-20T13:30:05;99741.00;;;21.50
22322;BMP180;11328;53.928;18.522;2023-07-20T13:32:38;99744.00;;;21.20
22322;BMP180;11328;53.928;18.522;2023-07-20T13:35:13;99736.00;;;21.00
22322;BMP180;11328;53.928;18.522;2023-07-20T13:37:41;99750.00;;;21.00
22322;BMP180;11328;53.928;18.522;2023-07-20T13:40:09;99746.00;;;21.10
22322;BMP180;11328;53.928;18.522;2023-07-20T13:42:40;99744.00;;;21.20
22322;BMP180;11328;53.928;18.522;2023-07-20T13:45:08;99753.00;;;21.00
22322;BMP180;11328;53.928;18.522;2023-07-20T13:47:36;99754.00;;;21.00
22322;BMP180;11328;53.928;18.522;2023-07-20T13:50:04;99754.00;;;20.90
22322;BMP180;11328;53.928;18.522;2023-07-20T13:52:31;99762.00;;;21.00
22322;BMP180;11328;53.928;18.522;2023-07-20T13:55:01;99753.00;;;20.90
22322;BMP180;11328;53.928;18.522;2023-07-20T13:57:31;99757.00;;;21.00
22322;BMP180;11328;53.928;18.522;2023-07-20T14:00:03;99753.00;;;21.20
22322;BMP180;11328;53.928;18.522;2023-07-20T14:02:31;99751.00;;;21.30
22322;BMP180;11328;53.928;18.522;2023-07-20T14:05:01;99761.00;;;21.40
22322;BMP180;11328;53.928;18.522;2023-07-20T14:07:32;99753.00;;;21.50
22322;BMP180;11328;53.928;18.522;2023-07-20T14:09:59;99751.00;;;21.60
22322;BMP180;11328;53.928;18.522;2023-07-20T14:12:29;99747.00;;;21.80
22322;BMP180;11328;53.928;18.522;2023-07-20T14:14:56;99753.00;;;21.80
22322;BMP180;11328;53.928;18.522;2023-07-20T14:17:23;99755.00;;;21.80
22322;BMP180;11328;53.928;18.522;2023-07-20T14:19:53;99769.00;;;21.80
22322;BMP180;11328;53.928;18.522;2023-07-20T14:22:20;99764.00;;;21.90
22322;BMP180;11328;53.928;18.522;2023-07-20T14:24:48;99764.00;;;22.10
22322;BMP180;11328;53.928;18.522;2023-07-20T14:27:15;99753.00;;;22.20